sensor_id;sensor_type;location;lat;lon;timestamp;P1;durP1;ratioP1;P2;durP2;ratioP2
37239;SDS011;23130;48.760;9.178;2023-04-28T00:00:16;6.65;;;2.53;;
37239;SDS011;23130;48.760;9.178;2023-04-28T00:02:42;4.10;;;2.38;;
37239;SDS011;23130;48.760;9.178;2023-04-28T00:05:08;3.92;;;2.78;;
37239;SDS011;23130;48.760;9.178;2023-04-28T00:07:33;4.65;;;2.63;;
37239;SDS011;23130;48.760;9.178;2023-04-28T00:09:59;3.17;;;2.33;;
37239;SDS011;23130;48.760;9.178;2023-04-28T00:12:24;7.43;;;2.17;;
37239;SDS011;23130;48.760;9.178;2023-04-28T00:14:50;4.32;;;2.35;;
37239;SDS011;23130;48.760;9.178;2023-04-28T00:17:16;8.07;;;3.25;;
37239;SDS011;23130;48.760;9.178;2023-04-28T00:19:41;7.43;;;2.70;;
37239;SDS011;23130;48.760;9.178;2023-04-28T00:22:07;3.72;;;2.55;;
37239;SDS011;23130;48.760;9.178;2023-04-28T00:24:32;3.40;;;2.42;;
37239;SDS011;23130;48.760;9.178;2023-04-28T00:27:00;3.47;;;2.22;;
37239;SDS011;23130;48.760;9.178;2023-04-28T00:29:27;3.28;;;2.15;;
37239;SDS011;23130;48.760;9.178;2023-04-28T00:31:53;3.78;;;2.17;;
37239;SDS011;23130;48.760;9.178;2023-04-28T00:34:18;3.00;;;2.22;;
37239;SDS011;23130;48.760;9.178;2023-04-28T00:36:44;7.20;;;2.72;;
37239;SDS011;23130;48.760;9.178;2023-04-28T00:39:09;3.97;;;2.50;;
37239;SDS011;23130;48.760;9.178;2023-04-28T00:41:35;6.22;;;2.88;;
37239;SDS011;23130;48.760;9.178;2023-04-28T00:44:00;9.10;;;2.45;;
37239;SDS011;23130;48.760;9.178;2023-04-28T00:46:27;7.55;;;3.80;;
37239;SDS011;23130;48.760;9.178;2023-04-28T00:48:55;7.68;;;4.13;;
37239;SDS011;23130;48.760;9.178;2023-04-28T00:51:21;7.75;;;4.47;;
37239;SDS011;23130;48.760;9.178;2023-04-28T00:53:47;6.05;;;4.60;;
37239;SDS011;23130;48.760;9.178;2023-04-28T00:56:12;9.18;;;4.47;;
37239;SDS011;23130;48.760;9.178;2023-04-28T00:58:39;7.10;;;3.65;;
37239;SDS011;23130;48.760;9.178;2023-04-28T01:01:06;10.82;;;3.10;;
37239;SDS011;23130;48.760;9.178;2023-04-28T01:03:33;4.43;;;2.53;;
37239;SDS011;23130;48.760;9.178;2023-04-28T01:06:01;6.05;;;3.10;;
37239;SDS011;23130;48.760;9.178;2023-04-28T01:08:32;5.57;;;3.35;;
37239;SDS011;23130;48.760;9.178;2023-04-28T01:11:00;13.85;;;4.32;;
37239;SDS011;23130;48.760;9.178;2023-04-28T01:13:26;7.30;;;4.18;;
37239;SDS011;23130;48.760;9.178;2023-04-28T01:15:52;6.70;;;3.97;;
37239;SDS011;23130;48.760;9.178;2023-04-28T01:18:17;6.20;;;4.20;;
37239;SDS011;23130;48.760;9.178;2023-04-28T01:20:43;7.03;;;4.68;;
37239;SDS011;23130;48.760;9.178;2023-04-28T01:23:12;6.38;;;4.68;;
37239;SDS011;23130;48.760;9.178;2023-04-28T01:25:39;6.13;;;4.18;;
37239;SDS011;23130;48.760;9.178;2023-04-28T01:28:05;6.43;;;4.45;;
37239;SDS011;23130;48.760;9.178;2023-04-28T01:30:31;7.32;;;3.97;;
37239;SDS011;23130;48.760;9.178;2023-04-28T01:32:56;4.95;;;3.10;;
37239;SDS011;23130;48.760;9.178;2023-04-28T01:35:22;5.97;;;3.58;;
37239;SDS011;23130;48.760;9.178;2023-04-28T01:37:48;7.47;;;3.47;;
37239;SDS011;23130;48.760;9.178;2023-04-28T01:40:13;4.97;;;3.00;;
37239;SDS011;23130;48.760;9.178;2023-04-28T01:42:39;3.58;;;2.38;;
37239;SDS011;23130;48.760;9.178;2023-04-28T01:45:05;7.07;;;2.47;;
37239;SDS011;23130;48.760;9.178;2023-04-28T01:47:31;3.90;;;2.13;;
37239;SDS011;23130;48.760;9.178;2023-04-28T01:49:56;6.57;;;2.38;;
37239;SDS011;23130;48.760;9.178;2023-04-28T01:52:22;4.07;;;1.90;;
37239;SDS011;23130;48.760;9.178;2023-04-28T01:54:48;4.20;;;2.17;;
37239;SDS011;23130;48.760;9.178;2023-04-28T01:57:14;4.65;;;2.38;;
37239;SDS011;23130;48.760;9.178;2023-04-28T01:59:40;5.55;;;2.28;;
37239;SDS011;23130;48.760;9.178;2023-04-28T02:02:06;3.38;;;2.00;;
37239;SDS011;23130;48.760;9.178;2023-04-28T02:04:31;5.40;;;2.00;;
37239;SDS011;23130;48.760;9.178;2023-04-28T02:06:57;5.63;;;2.20;;
37239;SDS011;23130;48.760;9.178;2023-04-28T02:09:23;3.63;;;2.40;;
37239;SDS011;23130;48.760;9.178;2023-04-28T02:11:48;4.88;;;1.80;;
37239;SDS011;23130;48.760;9.178;2023-04-28T02:14:14;5.40;;;2.42;;
37239;SDS011;23130;48.760;9.178;2023-04-28T02:16:39;5.93;;;1.90;;
37239;SDS011;23130;48.760;9.178;2023-04-28T02:19:05;5.10;;;2.03;;
37239;SDS011;23130;48.760;9.178;2023-04-28T02:21:31;5.43;;;2.53;;
37239;SDS011;23130;48.760;9.178;2023-04-28T02:23:56;4.32;;;2.28;;
37239;SDS011;23130;48.760;9.178;2023-04-28T02:26:22;3.10;;;2.20;;
37239;SDS011;23130;48.760;9.178;2023-04-28T02:28:48;6.68;;;2.92;;
37239;SDS011;23130;48.760;9.178;2023-04-28T02:31:14;5.35;;;2.75;;
37239;SDS011;23130;48.760;9.178;2023-04-28T02:33:40;3.78;;;1.95;;
37239;SDS011;23130;48.760;9.178;2023-04-28T02:36:08;4.38;;;2.42;;
37239;SDS011;23130;48.760;9.178;2023-04-28T02:38:35;3.63;;;2.17;;
37239;SDS011;23130;48.760;9.178;2023-04-28T02:41:01;5.07;;;2.17;;
37239;SDS011;23130;48.760;9.178;2023-04-28T02:43:28;5.88;;;2.85;;
37239;SDS011;23130;48.760;9.178;2023-04-28T02:45:55;3.28;;;2.35;;
37239;SDS011;23130;48.760;9.178;2023-04-28T02:48:21;2.60;;;1.75;;
37239;SDS011;23130;48.760;9.178;2023-04-28T02:50:50;5.50;;;2.15;;
37239;SDS011;23130;48.760;9.178;2023-04-28T02:53:20;3.30;;;2.47;;
37239;SDS011;23130;48.760;9.178;2023-04-28T02:55:46;4.65;;;2.25;;
37239;SDS011;23130;48.760;9.178;2023-04-28T02:58:12;3.83;;;2.20;;
37239;SDS011;23130;48.760;9.178;2023-04-28T03:00:37;5.80;;;2.38;;
37239;SDS011;23130;48.760;9.178;2023-04-28T03:03:03;3.65;;;2.33;;
37239;SDS011;23130;48.760;9.178;2023-04-28T03:05:28;4.22;;;2.25;;
37239;SDS011;23130;48.760;9.178;2023-04-28T03:07:54;4.00;;;2.10;;
37239;SDS011;23130;48.760;9.178;2023-04-28T03:10:20;5.18;;;2.50;;
37239;SDS011;23130;48.760;9.178;2023-04-28T03:12:45;3.72;;;2.30;;
37239;SDS011;23130;48.760;9.178;2023-04-28T03:15:11;3.80;;;2.17;;
37239;SDS011;23130;48.760;9.178;2023-04-28T03:17:36;7.47;;;2.58;;
37239;SDS011;23130;48.760;9.178;2023-04-28T03:20:06;4.57;;;2.17;;
37239;SDS011;23130;48.760;9.178;2023-04-28T03:22:32;5.05;;;2.20;;
37239;SDS011;23130;48.760;9.178;2023-04-28T03:24:58;6.53;;;2.70;;
37239;SDS011;23130;48.760;9.178;2023-04-28T03:27:24;4.38;;;2.35;;
37239;SDS011;23130;48.760;9.178;2023-04-28T03:29:50;3.95;;;2.38;;
37239;SDS011;23130;48.760;9.178;2023-04-28T03:32:16;3.78;;;2.40;;
37239;SDS011;23130;48.760;9.178;2023-04-28T03:34:41;6.15;;;2.17;;
37239;SDS011;23130;48.760;9.178;2023-04-28T03:37:07;3.40;;;2.50;;
37239;SDS011;23130;48.760;9.178;2023-04-28T03:39:32;5.13;;;2.05;;
37239;SDS011;23130;48.760;9.178;2023-04-28T03:41:58;4.55;;;2.33;;
37239;SDS011;23130;48.760;9.178;2023-04-28T03:44:23;3.30;;;2.00;;
37239;SDS011;23130;48.760;9.178;2023-04-28T03:46:49;4.68;;;2.78;;
37239;SDS011;23130;48.760;9.178;2023-04-28T03:49:15;4.75;;;2.60;;
37239;SDS011;23130;48.760;9.178;2023-04-28T03:51:40;5.90;;;3.10;;
37239;SDS011;23130;48.760;9.178;2023-04-28T03:54:06;4.50;;;3.08;;
37239;SDS011;23130;48.760;9.178;2023-04-28T03:56:32;6.50;;;3.08;;
37239;SDS011;23130;48.760;9.178;2023-04-28T03:58:58;9.05;;;4.22;;
37239;SDS011;23130;48.760;9.178;2023-04-28T04:01:23;5.75;;;3.55;;
37239;SDS011;23130;48.760;9.178;2023-04-28T04:03:49;6.80;;;2.67;;
37239;SDS011;23130;48.760;9.178;2023-04-28T04:06:15;3.83;;;2.72;;
37239;SDS011;23130;48.760;9.178;2023-04-28T04:08:41;8.25;;;2.45;;
37239;SDS011;23130;48.760;9.178;2023-04-28T04:11:07;5.50;;;2.58;;
37239;SDS011;23130;48.760;9.178;2023-04-28T04:13:32;2.85;;;2.35;;
37239;SDS011;23130;48.760;9.178;2023-04-28T04:15:58;4.18;;;2.67;;
37239;SDS011;23130;48.760;9.178;2023-04-28T04:18:23;4.80;;;3.03;;
37239;SDS011;23130;48.760;9.178;2023-04-28T04:20:49;4.70;;;2.60;;
37239;SDS011;23130;48.760;9.178;2023-04-28T04:23:17;4.05;;;2.25;;
37239;SDS011;23130;48.760;9.178;2023-04-28T04:25:43;4.97;;;2.45;;
37239;SDS011;23130;48.760;9.178;2023-04-28T04:28:09;3.72;;;2.50;;
37239;SDS011;23130;48.760;9.178;2023-04-28T04:30:35;5.57;;;2.45;;
37239;SDS011;23130;48.760;9.178;2023-04-28T04:33:00;5.70;;;2.50;;
37239;SDS011;23130;48.760;9.178;2023-04-28T04:35:26;5.40;;;2.67;;
37239;SDS011;23130;48.760;9.178;2023-04-28T04:37:52;4.00;;;2.75;;
37239;SDS011;23130;48.760;9.178;2023-04-28T04:40:17;5.05;;;2.83;;
37239;SDS011;23130;48.760;9.178;2023-04-28T04:42:43;4.65;;;2.85;;
37239;SDS011;23130;48.760;9.178;2023-04-28T04:45:09;2.63;;;2.22;;
37239;SDS011;23130;48.760;9.178;2023-04-28T04:47:34;4.05;;;2.70;;
37239;SDS011;23130;48.760;9.178;2023-04-28T04:50:00;5.00;;;2.92;;
37239;SDS011;23130;48.760;9.178;2023-04-28T04:52:26;6.20;;;3.85;;
37239;SDS011;23130;48.760;9.178;2023-04-28T04:54:51;4.78;;;2.60;;
37239;SDS011;23130;48.760;9.178;2023-04-28T04:57:17;4.70;;;2.50;;
37239;SDS011;23130;48.760;9.178;2023-04-28T04:59:43;4.05;;;3.03;;
37239;SDS011;23130;48.760;9.178;2023-04-28T05:02:08;6.45;;;3.33;;
37239;SDS011;23130;48.760;9.178;2023-04-28T05:04:34;6.00;;;3.30;;
37239;SDS011;23130;48.760;9.178;2023-04-28T05:06:59;7.85;;;4.35;;
37239;SDS011;23130;48.760;9.178;2023-04-28T05:09:25;5.85;;;3.25;;
37239;SDS011;23130;48.760;9.178;2023-04-28T05:11:51;7.10;;;3.65;;
37239;SDS011;23130;48.760;9.178;2023-04-28T05:14:17;6.47;;;3.88;;
37239;SDS011;23130;48.760;9.178;2023-04-28T05:16:42;6.00;;;3.78;;
37239;SDS011;23130;48.760;9.178;2023-04-28T05:19:08;6.13;;;4.50;;
37239;SDS011;23130;48.760;9.178;2023-04-28T05:21:33;6.13;;;3.75;;
37239;SDS011;23130;48.760;9.178;2023-04-28T05:23:59;6.57;;;3.88;;
37239;SDS011;23130;48.760;9.178;2023-04-28T05:26:26;6.65;;;3.78;;
37239;SDS011;23130;48.760;9.178;2023-04-28T05:28:51;5.72;;;3.97;;
37239;SDS011;23130;48.760;9.178;2023-04-28T05:31:17;7.40;;;4.22;;
37239;SDS011;23130;48.760;9.178;2023-04-28T05:33:42;8.68;;;4.45;;
37239;SDS011;23130;48.760;9.178;2023-04-28T05:36:08;8.60;;;4.35;;
37239;SDS011;23130;48.760;9.178;2023-04-28T05:38:33;6.03;;;3.58;;
37239;SDS011;23130;48.760;9.178;2023-04-28T05:41:00;5.95;;;3.72;;
37239;SDS011;23130;48.760;9.178;2023-04-28T05:43:26;5.68;;;3.67;;
37239;SDS011;23130;48.760;9.178;2023-04-28T05:45:52;8.10;;;4.35;;
37239;SDS011;23130;48.760;9.178;2023-04-28T05:48:17;6.78;;;4.40;;
37239;SDS011;23130;48.760;9.178;2023-04-28T05:50:43;7.10;;;4.28;;
37239;SDS011;23130;48.760;9.178;2023-04-28T05:53:09;6.50;;;4.30;;
37239;SDS011;23130;48.760;9.178;2023-04-28T05:55:35;6.72;;;4.20;;
37239;SDS011;23130;48.760;9.178;2023-04-28T05:58:04;7.63;;;4.25;;
37239;SDS011;23130;48.760;9.178;2023-04-28T06:00:29;6.13;;;3.95;;
37239;SDS011;23130;48.760;9.178;2023-04-28T06:02:55;8.13;;;3.88;;
37239;SDS011;23130;48.760;9.178;2023-04-28T06:05:21;6.45;;;3.58;;
37239;SDS011;23130;48.760;9.178;2023-04-28T06:07:47;6.22;;;4.40;;
37239;SDS011;23130;48.760;9.178;2023-04-28T06:10:12;5.53;;;4.25;;
37239;SDS011;23130;48.760;9.178;2023-04-28T06:12:38;7.20;;;3.80;;
37239;SDS011;23130;48.760;9.178;2023-04-28T06:15:04;5.75;;;4.63;;
37239;SDS011;23130;48.760;9.178;2023-04-28T06:17:30;7.85;;;4.25;;
37239;SDS011;23130;48.760;9.178;2023-04-28T06:19:57;9.93;;;4.22;;
37239;SDS011;23130;48.760;9.178;2023-04-28T06:22:23;5.53;;;4.18;;
37239;SDS011;23130;48.760;9.178;2023-04-28T06:24:49;7.43;;;4.72;;
37239;SDS011;23130;48.760;9.178;2023-04-28T06:27:15;7.57;;;4.50;;
37239;SDS011;23130;48.760;9.178;2023-04-28T06:29:40;7.88;;;4.05;;
37239;SDS011;23130;48.760;9.178;2023-04-28T06:32:06;8.07;;;4.07;;
37239;SDS011;23130;48.760;9.178;2023-04-28T06:34:32;6.72;;;4.00;;
37239;SDS011;23130;48.760;9.178;2023-04-28T06:36:58;6.20;;;3.90;;
37239;SDS011;23130;48.760;9.178;2023-04-28T06:39:24;6.68;;;4.72;;
37239;SDS011;23130;48.760;9.178;2023-04-28T06:41:50;6.90;;;4.47;;
37239;SDS011;23130;48.760;9.178;2023-04-28T06:44:18;7.63;;;4.60;;
37239;SDS011;23130;48.760;9.178;2023-04-28T06:46:44;7.10;;;4.10;;
37239;SDS011;23130;48.760;9.178;2023-04-28T06:49:10;7.68;;;4.10;;
37239;SDS011;23130;48.760;9.178;2023-04-28T06:51:35;5.07;;;3.72;;
37239;SDS011;23130;48.760;9.178;2023-04-28T06:54:01;5.25;;;3.85;;
37239;SDS011;23130;48.760;9.178;2023-04-28T06:56:27;6.93;;;3.97;;
37239;SDS011;23130;48.760;9.178;2023-04-28T06:58:56;6.68;;;3.83;;
37239;SDS011;23130;48.760;9.178;2023-04-28T07:01:22;6.22;;;4.38;;
37239;SDS011;23130;48.760;9.178;2023-04-28T07:03:48;6.43;;;4.53;;
37239;SDS011;23130;48.760;9.178;2023-04-28T07:06:14;6.93;;;4.50;;
37239;SDS011;23130;48.760;9.178;2023-04-28T07:08:40;6.10;;;4.22;;
37239;SDS011;23130;48.760;9.178;2023-04-28T07:11:07;8.30;;;4.60;;
37239;SDS011;23130;48.760;9.178;2023-04-28T07:13:33;8.68;;;4.45;;
37239;SDS011;23130;48.760;9.178;2023-04-28T07:15:58;6.88;;;4.72;;
37239;SDS011;23130;48.760;9.178;2023-04-28T07:18:24;6.70;;;4.60;;
37239;SDS011;23130;48.760;9.178;2023-04-28T07:20:50;6.00;;;4.07;;
37239;SDS011;23130;48.760;9.178;2023-04-28T07:23:15;8.80;;;4.40;;
37239;SDS011;23130;48.760;9.178;2023-04-28T07:25:41;6.25;;;4.47;;
37239;SDS011;23130;48.760;9.178;2023-04-28T07:28:07;5.13;;;3.90;;
37239;SDS011;23130;48.760;9.178;2023-04-28T07:30:33;5.80;;;3.63;;
37239;SDS011;23130;48.760;9.178;2023-04-28T07:32:59;6.65;;;3.90;;
37239;SDS011;23130;48.760;9.178;2023-04-28T07:35:25;5.93;;;3.88;;
37239;SDS011;23130;48.760;9.178;2023-04-28T07:37:51;5.10;;;3.25;;
37239;SDS011;23130;48.760;9.178;2023-04-28T07:40:17;6.88;;;3.83;;
37239;SDS011;23130;48.760;9.178;2023-04-28T07:42:43;7.93;;;4.53;;
37239;SDS011;23130;48.760;9.178;2023-04-28T07:45:09;5.13;;;3.30;;
37239;SDS011;23130;48.760;9.178;2023-04-28T07:47:35;5.82;;;3.90;;
37239;SDS011;23130;48.760;9.178;2023-04-28T07:50:02;5.90;;;4.10;;
37239;SDS011;23130;48.760;9.178;2023-04-28T07:52:30;5.85;;;3.58;;
37239;SDS011;23130;48.760;9.178;2023-04-28T07:54:57;4.55;;;3.38;;
37239;SDS011;23130;48.760;9.178;2023-04-28T07:57:23;6.40;;;3.88;;
37239;SDS011;23130;48.760;9.178;2023-04-28T07:59:48;4.63;;;3.55;;
37239;SDS011;23130;48.760;9.178;2023-04-28T08:02:14;6.82;;;4.13;;
37239;SDS011;23130;48.760;9.178;2023-04-28T08:04:40;9.23;;;4.30;;
37239;SDS011;23130;48.760;9.178;2023-04-28T08:07:06;7.88;;;4.13;;
37239;SDS011;23130;48.760;9.178;2023-04-28T08:09:33;7.50;;;4.57;;
37239;SDS011;23130;48.760;9.178;2023-04-28T08:11:59;7.90;;;4.53;;
37239;SDS011;23130;48.760;9.178;2023-04-28T08:14:25;7.50;;;4.13;;
37239;SDS011;23130;48.760;9.178;2023-04-28T08:16:51;7.80;;;4.22;;
37239;SDS011;23130;48.760;9.178;2023-04-28T08:19:17;6.63;;;4.57;;
37239;SDS011;23130;48.760;9.178;2023-04-28T08:21:43;5.18;;;4.32;;
37239;SDS011;23130;48.760;9.178;2023-04-28T08:24:08;6.63;;;4.20;;
37239;SDS011;23130;48.760;9.178;2023-04-28T08:26:35;6.05;;;4.75;;
37239;SDS011;23130;48.760;9.178;2023-04-28T08:29:01;7.00;;;3.92;;
37239;SDS011;23130;48.760;9.178;2023-04-28T08:31:27;5.40;;;3.95;;
37239;SDS011;23130;48.760;9.178;2023-04-28T08:33:52;5.70;;;4.03;;
37239;SDS011;23130;48.760;9.178;2023-04-28T08:36:18;6.70;;;4.07;;
37239;SDS011;23130;48.760;9.178;2023-04-28T08:38:44;8.65;;;4.22;;
37239;SDS011;23130;48.760;9.178;2023-04-28T08:41:11;6.22;;;3.85;;
37239;SDS011;23130;48.760;9.178;2023-04-28T08:43:39;5.97;;;3.53;;
37239;SDS011;23130;48.760;9.178;2023-04-28T08:46:07;7.45;;;4.55;;
37239;SDS011;23130;48.760;9.178;2023-04-28T08:48:37;6.50;;;5.30;;
37239;SDS011;23130;48.760;9.178;2023-04-28T08:51:05;8.57;;;6.85;;
37239;SDS011;23130;48.760;9.178;2023-04-28T08:53:31;9.82;;;5.85;;
37239;SDS011;23130;48.760;9.178;2023-04-28T08:56:01;10.93;;;7.13;;
37239;SDS011;23130;48.760;9.178;2023-04-28T08:58:30;14.98;;;8.40;;
37239;SDS011;23130;48.760;9.178;2023-04-28T09:00:56;12.88;;;7.88;;
37239;SDS011;23130;48.760;9.178;2023-04-28T09:03:22;12.95;;;9.38;;
37239;SDS011;23130;48.760;9.178;2023-04-28T09:05:48;13.30;;;8.43;;
37239;SDS011;23130;48.760;9.178;2023-04-28T09:08:13;14.27;;;9.07;;
37239;SDS011;23130;48.760;9.178;2023-04-28T09:10:39;10.80;;;7.70;;
37239;SDS011;23130;48.760;9.178;2023-04-28T09:13:05;12.85;;;7.68;;
37239;SDS011;23130;48.760;9.178;2023-04-28T09:15:35;8.13;;;6.55;;
37239;SDS011;23130;48.760;9.178;2023-04-28T09:18:05;11.48;;;7.95;;
37239;SDS011;23130;48.760;9.178;2023-04-28T09:20:32;8.68;;;6.55;;
37239;SDS011;23130;48.760;9.178;2023-04-28T09:28:23;10.23;;;7.07;;
37239;SDS011;23130;48.760;9.178;2023-04-28T09:30:49;9.70;;;6.00;;
37239;SDS011;23130;48.760;9.178;2023-04-28T09:33:14;8.60;;;6.40;;
37239;SDS011;23130;48.760;9.178;2023-04-28T09:35:40;9.05;;;6.97;;
37239;SDS011;23130;48.760;9.178;2023-04-28T09:38:09;7.90;;;5.22;;
37239;SDS011;23130;48.760;9.178;2023-04-28T09:43:27;6.70;;;3.70;;
37239;SDS011;23130;48.760;9.178;2023-04-28T09:46:00;4.75;;;3.33;;
37239;SDS011;23130;48.760;9.178;2023-04-28T09:51:05;3.28;;;2.25;;
37239;SDS011;23130;48.760;9.178;2023-04-28T09:53:32;3.20;;;2.38;;
37239;SDS011;23130;48.760;9.178;2023-04-28T09:55:58;3.28;;;2.45;;
37239;SDS011;23130;48.760;9.178;2023-04-28T09:58:27;3.10;;;1.88;;
37239;SDS011;23130;48.760;9.178;2023-04-28T10:00:57;3.83;;;1.48;;
37239;SDS011;23130;48.760;9.178;2023-04-28T10:03:24;2.17;;;1.50;;
37239;SDS011;23130;48.760;9.178;2023-04-28T10:05:51;2.78;;;1.98;;
37239;SDS011;23130;48.760;9.178;2023-04-28T10:08:20;3.00;;;1.48;;
37239;SDS011;23130;48.760;9.178;2023-04-28T10:10:47;2.78;;;1.20;;
37239;SDS011;23130;48.760;9.178;2023-04-28T10:13:16;4.90;;;1.52;;
37239;SDS011;23130;48.760;9.178;2023-04-28T10:15:43;3.88;;;1.38;;
37239;SDS011;23130;48.760;9.178;2023-04-28T10:18:10;2.30;;;1.20;;
37239;SDS011;23130;48.760;9.178;2023-04-28T10:20:43;1.60;;;1.00;;
37239;SDS011;23130;48.760;9.178;2023-04-28T10:25:57;1.60;;;0.90;;
37239;SDS011;23130;48.760;9.178;2023-04-28T10:28:24;1.88;;;1.00;;
37239;SDS011;23130;48.760;9.178;2023-04-28T10:31:09;2.17;;;1.00;;
37239;SDS011;23130;48.760;9.178;2023-04-28T10:33:39;2.47;;;0.80;;
37239;SDS011;23130;48.760;9.178;2023-04-28T10:36:06;2.10;;;0.90;;
37239;SDS011;23130;48.760;9.178;2023-04-28T10:38:32;3.28;;;0.90;;
37239;SDS011;23130;48.760;9.178;2023-04-28T10:40:59;2.75;;;1.08;;
37239;SDS011;23130;48.760;9.178;2023-04-28T10:43:36;3.15;;;1.17;;
37239;SDS011;23130;48.760;9.178;2023-04-28T10:46:12;3.50;;;0.90;;
37239;SDS011;23130;48.760;9.178;2023-04-28T10:56:08;1.58;;;0.60;;
37239;SDS011;23130;48.760;9.178;2023-04-28T10:58:39;0.55;;;0.30;;
37239;SDS011;23130;48.760;9.178;2023-04-28T11:06:23;0.77;;;0.38;;
37239;SDS011;23130;48.760;9.178;2023-04-28T11:11:38;0.90;;;0.32;;
37239;SDS011;23130;48.760;9.178;2023-04-28T11:14:33;0.98;;;0.28;;
37239;SDS011;23130;48.760;9.178;2023-04-28T11:17:03;1.38;;;0.30;;
37239;SDS011;23130;48.760;9.178;2023-04-28T11:19:31;1.08;;;0.20;;
37239;SDS011;23130;48.760;9.178;2023-04-28T11:22:02;0.85;;;0.30;;
37239;SDS011;23130;48.760;9.178;2023-04-28T11:24:36;1.33;;;0.40;;
37239;SDS011;23130;48.760;9.178;2023-04-28T11:27:02;1.63;;;0.20;;
37239;SDS011;23130;48.760;9.178;2023-04-28T11:29:32;0.95;;;0.30;;
37239;SDS011;23130;48.760;9.178;2023-04-28T11:31:59;0.70;;;0.20;;
37239;SDS011;23130;48.760;9.178;2023-04-28T11:34:25;0.47;;;0.20;;
37239;SDS011;23130;48.760;9.178;2023-04-28T11:36:51;0.35;;;0.20;;
37239;SDS011;23130;48.760;9.178;2023-04-28T11:39:17;0.77;;;0.30;;
37239;SDS011;23130;48.760;9.178;2023-04-28T11:41:52;0.73;;;0.30;;
37239;SDS011;23130;48.760;9.178;2023-04-28T11:44:19;0.73;;;0.20;;
37239;SDS011;23130;48.760;9.178;2023-04-28T11:46:49;1.30;;;0.20;;
37239;SDS011;23130;48.760;9.178;2023-04-28T11:49:20;0.35;;;0.20;;
37239;SDS011;23130;48.760;9.178;2023-04-28T11:51:48;1.10;;;0.43;;
37239;SDS011;23130;48.760;9.178;2023-04-28T11:54:21;1.60;;;0.17;;
37239;SDS011;23130;48.760;9.178;2023-04-28T11:56:48;0.82;;;0.30;;
37239;SDS011;23130;48.760;9.178;2023-04-28T11:59:14;0.28;;;0.10;;
37239;SDS011;23130;48.760;9.178;2023-04-28T12:01:44;0.88;;;0.22;;
37239;SDS011;23130;48.760;9.178;2023-04-28T12:04:35;0.65;;;0.30;;
37239;SDS011;23130;48.760;9.178;2023-04-28T12:07:11;0.77;;;0.10;;
37239;SDS011;23130;48.760;9.178;2023-04-28T12:12:09;2.03;;;0.20;;
37239;SDS011;23130;48.760;9.178;2023-04-28T12:17:32;2.05;;;0.50;;
37239;SDS011;23130;48.760;9.178;2023-04-28T12:20:03;0.25;;;0.10;;
37239;SDS011;23130;48.760;9.178;2023-04-28T12:22:30;0.50;;;0.10;;
37239;SDS011;23130;48.760;9.178;2023-04-28T12:25:16;0.90;;;0.32;;
37239;SDS011;23130;48.760;9.178;2023-04-28T12:27:59;0.30;;;0.20;;
37239;SDS011;23130;48.760;9.178;2023-04-28T12:30:35;1.15;;;0.40;;
37239;SDS011;23130;48.760;9.178;2023-04-28T12:33:20;1.65;;;0.28;;
37239;SDS011;23130;48.760;9.178;2023-04-28T12:35:47;0.98;;;0.38;;
37239;SDS011;23130;48.760;9.178;2023-04-28T12:38:14;0.95;;;0.32;;
37239;SDS011;23130;48.760;9.178;2023-04-28T12:40:40;0.40;;;0.20;;
37239;SDS011;23130;48.760;9.178;2023-04-28T12:43:06;1.73;;;0.25;;
37239;SDS011;23130;48.760;9.178;2023-04-28T12:45:32;0.38;;;0.20;;
37239;SDS011;23130;48.760;9.178;2023-04-28T12:47:58;0.57;;;0.20;;
37239;SDS011;23130;48.760;9.178;2023-04-28T12:50:24;0.63;;;0.47;;
37239;SDS011;23130;48.760;9.178;2023-04-28T12:52:51;0.35;;;0.13;;
37239;SDS011;23130;48.760;9.178;2023-04-28T12:55:16;0.63;;;0.20;;
37239;SDS011;23130;48.760;9.178;2023-04-28T12:57:42;0.47;;;0.22;;
37239;SDS011;23130;48.760;9.178;2023-04-28T13:00:07;1.30;;;0.40;;
37239;SDS011;23130;48.760;9.178;2023-04-28T13:02:34;0.90;;;0.40;;
37239;SDS011;23130;48.760;9.178;2023-04-28T13:05:00;0.60;;;0.30;;
37239;SDS011;23130;48.760;9.178;2023-04-28T13:07:26;1.40;;;0.50;;
37239;SDS011;23130;48.760;9.178;2023-04-28T13:09:51;2.25;;;0.70;;
37239;SDS011;23130;48.760;9.178;2023-04-28T13:12:19;1.33;;;0.80;;
37239;SDS011;23130;48.760;9.178;2023-04-28T13:14:44;1.48;;;1.08;;
37239;SDS011;23130;48.760;9.178;2023-04-28T13:17:10;3.08;;;1.02;;
37239;SDS011;23130;48.760;9.178;2023-04-28T13:19:36;4.68;;;0.95;;
37239;SDS011;23130;48.760;9.178;2023-04-28T13:22:03;1.17;;;0.60;;
37239;SDS011;23130;48.760;9.178;2023-04-28T13:24:30;1.45;;;0.60;;
37239;SDS011;23130;48.760;9.178;2023-04-28T13:26:57;1.70;;;0.63;;
37239;SDS011;23130;48.760;9.178;2023-04-28T13:29:23;1.88;;;0.40;;
37239;SDS011;23130;48.760;9.178;2023-04-28T13:31:48;2.85;;;0.60;;
37239;SDS011;23130;48.760;9.178;2023-04-28T13:34:14;1.10;;;0.70;;
37239;SDS011;23130;48.760;9.178;2023-04-28T13:36:42;3.63;;;0.88;;
37239;SDS011;23130;48.760;9.178;2023-04-28T13:39:08;1.23;;;0.77;;
37239;SDS011;23130;48.760;9.178;2023-04-28T13:41:38;1.63;;;0.50;;
37239;SDS011;23130;48.760;9.178;2023-04-28T13:44:04;0.90;;;0.57;;
37239;SDS011;23130;48.760;9.178;2023-04-28T13:46:29;0.80;;;0.55;;
37239;SDS011;23130;48.760;9.178;2023-04-28T13:48:55;1.77;;;0.65;;
37239;SDS011;23130;48.760;9.178;2023-04-28T13:51:21;2.15;;;0.77;;
37239;SDS011;23130;48.760;9.178;2023-04-28T13:53:47;1.48;;;0.73;;
37239;SDS011;23130;48.760;9.178;2023-04-28T13:56:13;1.42;;;0.60;;
37239;SDS011;23130;48.760;9.178;2023-04-28T13:58:38;1.30;;;0.50;;
37239;SDS011;23130;48.760;9.178;2023-04-28T14:01:04;1.00;;;0.70;;
37239;SDS011;23130;48.760;9.178;2023-04-28T14:03:30;2.10;;;0.70;;
37239;SDS011;23130;48.760;9.178;2023-04-28T14:05:56;2.30;;;0.90;;
37239;SDS011;23130;48.760;9.178;2023-04-28T14:08:22;1.20;;;0.65;;
37239;SDS011;23130;48.760;9.178;2023-04-28T14:10:49;1.15;;;0.45;;
37239;SDS011;23130;48.760;9.178;2023-04-28T14:13:15;1.10;;;0.60;;
37239;SDS011;23130;48.760;9.178;2023-04-28T14:15:42;1.30;;;0.43;;
37239;SDS011;23130;48.760;9.178;2023-04-28T14:18:09;1.70;;;0.60;;
37239;SDS011;23130;48.760;9.178;2023-04-28T14:20:35;1.98;;;0.80;;
37239;SDS011;23130;48.760;9.178;2023-04-28T14:23:01;2.38;;;0.98;;
37239;SDS011;23130;48.760;9.178;2023-04-28T14:25:27;3.10;;;1.17;;
37239;SDS011;23130;48.760;9.178;2023-04-28T14:27:52;2.03;;;1.08;;
37239;SDS011;23130;48.760;9.178;2023-04-28T14:30:18;2.08;;;1.38;;
37239;SDS011;23130;48.760;9.178;2023-04-28T14:32:45;4.53;;;0.90;;
37239;SDS011;23130;48.760;9.178;2023-04-28T14:35:12;3.28;;;1.20;;
37239;SDS011;23130;48.760;9.178;2023-04-28T14:37:40;1.73;;;0.85;;
37239;SDS011;23130;48.760;9.178;2023-04-28T14:40:07;1.17;;;0.38;;
37239;SDS011;23130;48.760;9.178;2023-04-28T14:42:33;1.85;;;0.77;;
37239;SDS011;23130;48.760;9.178;2023-04-28T14:45:04;0.43;;;0.30;;
37239;SDS011;23130;48.760;9.178;2023-04-28T14:47:31;1.23;;;0.40;;
37239;SDS011;23130;48.760;9.178;2023-04-28T14:49:57;0.88;;;0.45;;
37239;SDS011;23130;48.760;9.178;2023-04-28T14:52:23;1.17;;;0.30;;
37239;SDS011;23130;48.760;9.178;2023-04-28T14:54:51;0.40;;;0.22;;
37239;SDS011;23130;48.760;9.178;2023-04-28T14:57:17;0.93;;;0.30;;
37239;SDS011;23130;48.760;9.178;2023-04-28T14:59:44;0.68;;;0.20;;
37239;SDS011;23130;48.760;9.178;2023-04-28T15:02:10;0.60;;;0.28;;
37239;SDS011;23130;48.760;9.178;2023-04-28T15:04:36;0.73;;;0.20;;
37239;SDS011;23130;48.760;9.178;2023-04-28T15:07:02;1.00;;;0.30;;
37239;SDS011;23130;48.760;9.178;2023-04-28T15:09:28;2.95;;;0.30;;
37239;SDS011;23130;48.760;9.178;2023-04-28T15:11:53;1.00;;;0.20;;
37239;SDS011;23130;48.760;9.178;2023-04-28T15:14:19;2.42;;;0.10;;
37239;SDS011;23130;48.760;9.178;2023-04-28T15:16:45;1.05;;;0.28;;
37239;SDS011;23130;48.760;9.178;2023-04-28T15:19:14;1.00;;;0.30;;